Forside
METAR-TAF:

METAR-TAF

Lufthavne :

Sedalia, Missouri, USA

Breddekreds: 38-42-44N, længdekreds: 093-10-28W, højde: 277 m

Aktuelle vejr

Denne rapport blev lavet for 1 time og 1 minutter siden, kl. 11:53 UTC
Vind 10 kt fra sydøst
Temperatur 2°C
Fugtighed 80%
Tryk 1013 hPa
Sigt: 16.1 km
Overskyet i en højde af 2700 ft

METAR: KDMO 221153Z AUTO 14010KT 10SM OVC027 02/M01 A2991 RMK AO2 SLP135 T00221011 10022 21006 53004 $

Tid: 06:54 (12:54 UTC)


TAF: fraværende

Vejrobservationer og prognoser fra mere end 4000 lufthavne (METAR og TAF).

De gule og røde prikker repræsenterer de meteorologiske stationer.

Flyt musen over at se navnet på stationen.

Så klik over at se vejr observationer og prognoser.

At skifte det kort: Klik på de grønne knapper med et sort kors for at zoome ind; på den grønne knap med en bindestreg for at zoome ud; eller på de grønne pile for tilstødende kort.


METAR-TAF: